Time;durP1;ratioP1;P1;durP2;ratioP2;P2;SDS_P1;SDS_P2;PMS_P1;PMS_P2;Temp;Humidity;BMP_temperature;BMP_pressure;BME280_temperature;BME280_humidity;BME280_pressure;Samples;Min_cycle;Max_cycle;Signal;HPM_P1;HPM_P2
2021/01/20 00:00:59;;;;;;;12.97;9.13;;;;;;;5.69;81.82;100380.31;5077888;28;20036;-80
2021/01/20 00:03:24;;;;;;;15.20;8.23;;;;;;;5.68;81.83;100378.66;5078851;28;20028;-80
2021/01/20 00:05:50;;;;;;;12.83;9.03;;;;;;;5.66;81.71;100369.97;5078439;28;20052;-80
2021/01/20 00:08:15;;;;;;;14.67;8.30;;;;;;;5.68;82.00;100366.06;5077068;28;20036;-80
2021/01/20 00:10:40;;;;;;;15.93;8.50;;;;;;;5.65;81.19;100362.97;5078020;28;20070;-80
2021/01/20 00:13:06;;;;;;;17.27;7.97;;;;;;;5.65;81.21;100362.97;5078758;28;20028;-80
2021/01/20 00:15:32;;;;;;;11.63;7.07;;;;;;;5.61;81.15;100342.97;5078262;28;20418;-80
2021/01/20 00:17:57;;;;;;;12.07;7.87;;;;;;;5.62;80.93;100356.19;5078513;28;20282;-80
2021/01/20 00:20:22;;;;;;;14.07;8.03;;;;;;;5.60;80.71;100362.78;5078514;28;20028;-80
2021/01/20 00:22:51;;;;;;;15.33;8.50;;;;;;;5.60;80.14;100355.56;5077959;28;20093;-81
2021/01/20 00:25:18;;;;;;;16.20;7.90;;;;;;;5.55;81.17;100363.41;5077369;28;20063;-81
2021/01/20 00:27:44;;;;;;;14.20;8.15;;;;;;;5.52;81.39;100361.16;5077610;28;20071;-81
2021/01/20 00:30:11;;;;;;;16.63;8.18;;;;;;;5.52;80.80;100353.13;5075631;28;20032;-81
2021/01/20 00:32:36;;;;;;;12.10;6.95;;;;;;;5.51;80.89;100347.94;5077296;28;20114;-81
2021/01/20 00:35:08;;;;;;;16.60;7.25;;;;;;;5.52;81.25;100358.47;5076831;28;20434;-80
2021/01/20 00:37:40;;;;;;;11.88;7.00;;;;;;;5.51;81.34;100342.56;5075807;28;20024;-81
2021/01/20 00:40:09;;;;;;;15.98;8.60;;;;;;;5.52;81.03;100344.25;5076897;28;20036;-80
2021/01/20 00:42:37;;;;;;;13.15;7.47;;;;;;;5.50;81.81;100341.75;5075918;28;20140;-80
2021/01/20 00:45:04;;;;;;;14.18;7.70;;;;;;;5.50;80.47;100336.38;5077661;28;20025;-80
2021/01/20 00:47:30;;;;;;;13.73;6.88;;;;;;;5.54;81.13;100342.16;5077367;28;20020;-80
2021/01/20 00:49:55;;;;;;;11.03;7.20;;;;;;;5.53;80.17;100322.56;5077583;28;20032;-80
2021/01/20 00:52:20;;;;;;;14.83;6.93;;;;;;;5.54;80.46;100320.72;5076917;28;20024;-80
2021/01/20 00:54:46;;;;;;;11.47;6.33;;;;;;;5.54;80.42;100315.34;5084349;28;20032;-79
2021/01/20 00:57:11;;;;;;;12.13;7.40;;;;;;;5.56;80.10;100313.25;5087900;28;20031;-80
2021/01/20 00:59:36;;;;;;;14.53;6.77;;;;;;;5.53;80.31;100316.38;5077654;28;20047;-80
2021/01/20 01:02:05;;;;;;;13.83;7.23;;;;;;;5.53;80.77;100313.72;5077263;28;20332;-80
2021/01/20 01:04:30;;;;;;;10.00;6.32;;;;;;;5.54;80.69;100310.81;5077475;28;20024;-80
2021/01/20 01:06:59;;;;;;;14.60;6.90;;;;;;;5.56;80.58;100311.44;5076897;28;20441;-79
2021/01/20 01:09:24;;;;;;;8.93;6.15;;;;;;;5.55;79.87;100306.25;5074607;28;20112;-80
2021/01/20 01:11:50;;;;;;;13.60;6.97;;;;;;;5.55;80.36;100311.63;5076385;28;20107;-80
2021/01/20 01:14:15;;;;;;;12.23;7.13;;;;;;;5.53;80.85;100303.81;5076535;28;20052;-81
2021/01/20 01:16:40;;;;;;;15.30;7.13;;;;;;;5.55;80.20;100301.72;5082621;28;20021;-81
2021/01/20 01:19:06;;;;;;;12.43;6.67;;;;;;;5.53;80.21;100301.13;5077091;28;20047;-81
2021/01/20 01:21:31;;;;;;;11.73;6.40;;;;;;;5.54;80.63;100297.41;5076917;28;20074;-81
2021/01/20 01:23:56;;;;;;;13.03;5.83;;;;;;;5.57;79.81;100309.56;5076674;28;20029;-81
2021/01/20 01:26:22;;;;;;;12.47;6.93;;;;;;;5.57;80.14;100301.53;5075631;28;20097;-81
2021/01/20 01:28:47;;;;;;;11.63;6.77;;;;;;;5.59;80.83;100302.13;5075708;28;20039;-78
2021/01/20 01:31:12;;;;;;;9.27;5.83;;;;;;;5.59;80.85;100297.59;5075920;28;20056;-81
2021/01/20 01:33:38;;;;;;;13.30;6.77;;;;;;;5.61;80.31;100294.69;5076615;28;20032;-81
2021/01/20 01:36:04;;;;;;;10.47;6.20;;;;;;;5.59;80.86;100291.41;5076534;28;20064;-80
2021/01/20 01:38:30;;;;;;;12.48;6.38;;;;;;;5.60;80.61;100282.31;5076610;28;20028;-80
2021/01/20 01:40:55;;;;;;;9.73;6.93;;;;;;;5.63;80.38;100292.63;5075203;28;20028;-81
2021/01/20 01:43:22;;;;;;;12.67;6.87;;;;;;;5.66;80.46;100279.63;5076535;28;20163;-80
2021/01/20 01:45:50;;;;;;;12.48;6.97;;;;;;;5.68;80.80;100287.44;5075097;28;20110;-78
2021/01/20 01:48:18;;;;;;;12.90;7.32;;;;;;;5.69;80.31;100273.00;5076617;28;20296;-78
2021/01/20 01:50:47;;;;;;;11.60;6.80;;;;;;;5.71;80.76;100280.81;5075794;28;20455;-80
2021/01/20 01:53:13;;;;;;;12.57;6.75;;;;;;;5.73;80.15;100273.41;5075703;28;20074;-78
2021/01/20 01:55:38;;;;;;;14.32;6.90;;;;;;;5.73;80.53;100279.59;5075500;28;20372;-78
2021/01/20 01:58:04;;;;;;;13.27;6.67;;;;;;;5.71;81.17;100270.94;5075936;28;20487;-81
2021/01/20 02:00:29;;;;;;;16.20;8.00;;;;;;;5.75;80.65;100284.72;5075537;28;20028;-81
2021/01/20 02:02:55;;;;;;;11.27;6.88;;;;;;;5.74;81.30;100285.78;5083065;28;20036;-80
2021/01/20 02:05:20;;;;;;;11.65;6.55;;;;;;;5.77;81.50;100285.34;5089460;28;20029;-78
2021/01/20 02:07:46;;;;;;;11.50;7.57;;;;;;;5.77;81.48;100282.66;5076017;28;20021;-81
2021/01/20 02:10:13;;;;;;;14.30;7.85;;;;;;;5.77;81.54;100269.25;5075441;28;20032;-81
2021/01/20 02:12:57;;;;;;;15.05;7.25;;;;;;;5.79;81.82;100269.84;5074985;28;20333;-81
2021/01/20 02:15:52;;;;;;;15.68;8.07;;;;;;;5.82;81.43;100264.88;5074905;28;20105;-79
2021/01/20 02:18:20;;;;;;;15.27;7.80;;;;;;;5.82;81.53;100264.06;5063202;28;20032;-78
2021/01/20 02:21:07;;;;;;;9.23;6.82;;;;;;;5.82;81.83;100266.75;5074544;28;20028;-78
2021/01/20 02:23:33;;;;;;;12.47;7.30;;;;;;;5.77;83.36;100262.03;5073901;28;20036;-79
2021/01/20 02:26:36;;;;;;;13.63;7.68;;;;;;;5.73;83.97;100255.44;5074739;28;20769;-79
2021/01/20 02:29:29;;;;;;;14.25;8.02;;;;;;;5.68;84.76;100260.63;5075489;28;20106;-78
2021/01/20 02:31:55;;;;;;;16.13;7.82;;;;;;;5.59;85.03;100257.34;5063329;28;20556;-79
2021/01/20 02:34:22;;;;;;;13.38;7.95;;;;;;;5.57;85.04;100237.16;5075225;28;20028;-79
2021/01/20 02:36:50;;;;;;;13.05;7.32;;;;;;;5.56;85.32;100248.91;5075348;28;20050;-78
2021/01/20 02:39:17;;;;;;;15.85;8.40;;;;;;;5.57;85.31;100242.53;5074899;28;20295;-79
2021/01/20 02:41:43;;;;;;;14.30;7.25;;;;;;;5.57;85.12;100239.84;5074183;28;20318;-79
2021/01/20 02:44:08;;;;;;;13.27;7.32;;;;;;;5.59;85.39;100237.75;5075095;28;20036;-79
2021/01/20 02:46:34;;;;;;;10.83;7.40;;;;;;;5.60;85.35;100245.56;5075219;28;20103;-79
2021/01/20 02:49:00;;;;;;;11.80;7.07;;;;;;;5.62;84.96;100234.66;5075750;28;20052;-79
2021/01/20 02:51:53;;;;;;;11.70;6.40;;;;;;;5.67;83.78;100230.28;5074893;28;20377;-79
2021/01/20 02:54:20;;;;;;;10.57;6.75;;;;;;;5.73;83.13;100211.69;5074001;28;20373;-79
2021/01/20 02:56:50;;;;;;;9.20;6.25;;;;;;;5.82;82.06;100219.28;5074414;28;20036;-79
2021/01/20 02:59:19;;;;;;;9.48;6.47;;;;;;;5.85;81.92;100215.31;5075218;28;20420;-79
2021/01/20 03:01:52;;;;;;;9.18;5.70;;;;;;;5.93;81.27;100223.97;5075250;28;20416;-79
2021/01/20 03:04:19;;;;;;;13.90;6.30;;;;;;;6.00;80.63;100220.44;5075725;28;20024;-79
2021/01/20 03:06:48;;;;;;;9.68;5.63;;;;;;;6.05;81.14;100220.59;5075191;28;20325;-79
2021/01/20 03:09:15;;;;;;;9.82;5.55;;;;;;;6.13;80.30;100198.88;5063290;28;20031;-78
2021/01/20 03:11:46;;;;;;;10.40;6.13;;;;;;;6.11;80.73;100196.41;5083553;28;20111;-79
2021/01/20 03:14:11;;;;;;;9.98;5.05;;;;;;;6.11;81.35;100207.16;5081696;28;20033;-79
2021/01/20 03:16:37;;;;;;;12.47;6.03;;;;;;;6.13;80.83;100191.66;5074985;28;20051;-79
2021/01/20 03:19:02;;;;;;;9.13;5.33;;;;;;;6.16;80.77;100190.41;5075241;28;20337;-79
2021/01/20 03:21:28;;;;;;;9.52;5.68;;;;;;;6.14;81.70;100187.09;5075340;28;20046;-79
2021/01/20 03:23:53;;;;;;;11.77;5.07;;;;;;;6.11;82.24;100188.38;5074598;28;20040;-79
2021/01/20 03:26:18;;;;;;;14.17;5.70;;;;;;;6.10;82.18;100184.03;5073827;28;20090;-79
2021/01/20 03:28:43;;;;;;;9.00;5.50;;;;;;;6.10;82.38;100175.13;5074078;28;20133;-79
2021/01/20 03:31:09;;;;;;;8.13;5.10;;;;;;;6.07;82.21;100167.53;5074859;28;20090;-78
2021/01/20 03:33:34;;;;;;;11.30;5.60;;;;;;;6.10;82.11;100167.09;5074805;28;20043;-79
2021/01/20 03:35:59;;;;;;;8.50;5.43;;;;;;;6.13;81.72;100159.44;5074755;28;20045;-79
2021/01/20 03:38:25;;;;;;;10.60;5.50;;;;;;;6.10;81.54;100145.63;5075069;28;20036;-79
2021/01/20 03:40:50;;;;;;;10.00;5.30;;;;;;;6.14;81.38;100160.25;5074322;28;20044;-79
2021/01/20 03:43:17;;;;;;;8.50;4.83;;;;;;;6.14;81.29;100150.31;5074289;28;20031;-79
2021/01/20 03:45:42;;;;;;;8.98;5.20;;;;;;;6.15;81.58;100154.69;5075063;28;20025;-79
2021/01/20 03:48:08;;;;;;;12.30;5.10;;;;;;;6.21;80.41;100157.53;5074865;28;20033;-79
2021/01/20 03:50:33;;;;;;;10.23;5.17;;;;;;;6.22;81.03;100156.47;5074037;28;20043;-79
2021/01/20 03:52:58;;;;;;;10.20;5.60;;;;;;;6.23;80.84;100148.19;5075113;28;20094;-79
2021/01/20 03:55:24;;;;;;;7.60;4.67;;;;;;;6.22;80.87;100151.94;5074023;28;20060;-79
2021/01/20 03:57:50;;;;;;;9.10;5.20;;;;;;;6.24;80.24;100135.59;5075009;28;20048;-79
2021/01/20 04:00:16;;;;;;;6.97;4.45;;;;;;;6.21;81.16;100139.56;5072796;28;20135;-79
2021/01/20 04:02:41;;;;;;;9.30;5.32;;;;;;;6.22;81.13;100133.13;5075158;28;20095;-79
2021/01/20 04:05:08;;;;;;;6.67;4.40;;;;;;;6.22;80.92;100127.75;5074750;28;20139;-79
2021/01/20 04:07:33;;;;;;;8.40;4.43;;;;;;;6.22;81.00;100127.75;5077245;28;20059;-79
2021/01/20 04:10:00;;;;;;;8.67;5.00;;;;;;;6.26;80.84;100133.53;5078157;28;20056;-79
2021/01/20 04:12:25;;;;;;;;;;;;;;;6.26;80.72;100128.97;5076086;28;20017;-79
2021/01/20 04:14:50;;;;;;;9.20;4.93;;;;;;;6.33;80.11;100124.34;5078557;28;19919;-80
2021/01/20 04:17:16;;;;;;;6.97;4.57;;;;;;;6.30;81.04;100124.81;5078042;28;20287;-79
2021/01/20 04:19:42;;;;;;;10.90;4.93;;;;;;;6.31;81.07;100115.72;5077363;28;20043;-79
2021/01/20 04:22:07;;;;;;;;;;;;;;;6.31;81.37;100110.34;5078892;28;20070;-80
2021/01/20 04:24:33;;;;;;;8.82;4.63;;;;;;;6.30;80.73;100110.56;5078339;28;19908;-79
2021/01/20 04:26:58;;;;;;;9.03;4.60;;;;;;;6.31;80.78;100109.53;5077959;28;20330;-79
2021/01/20 04:29:23;;;;;;;7.60;4.37;;;;;;;6.30;81.05;100108.69;5077277;28;20025;-79
2021/01/20 04:31:49;;;;;;;8.60;4.53;;;;;;;6.32;80.65;100113.84;5077157;28;20037;-79
2021/01/20 04:34:14;;;;;;;8.60;4.67;;;;;;;6.32;80.74;100120.03;5078119;28;20025;-80
2021/01/20 04:36:39;;;;;;;10.50;5.03;;;;;;;6.35;80.15;100106.19;5078136;28;20060;-80
2021/01/20 04:39:05;;;;;;;9.60;4.80;;;;;;;6.36;80.46;100110.50;5076997;28;20032;-79
2021/01/20 04:41:32;;;;;;;9.20;4.60;;;;;;;6.41;79.87;100102.59;5077340;28;20024;-79
2021/01/20 04:43:58;;;;;;;8.85;4.07;;;;;;;6.45;79.57;100109.19;5076825;28;20025;-79
2021/01/20 04:46:24;;;;;;;8.27;4.80;;;;;;;6.45;79.55;100103.81;5077659;28;20028;-79
2021/01/20 04:48:49;;;;;;;;;;;;;;;6.48;79.04;100107.06;5078466;28;20013;-79
2021/01/20 04:51:18;;;;;;;11.00;5.50;;;;;;;6.47;79.84;100092.00;5077263;28;20253;-79
2021/01/20 04:53:44;;;;;;;8.38;4.90;;;;;;;6.49;78.81;100097.97;5077777;28;20419;-79
2021/01/20 04:56:12;;;;;;;8.18;4.78;;;;;;;6.47;79.37;100086.63;5077259;28;20067;-80
2021/01/20 04:58:38;;;;;;;9.75;4.63;;;;;;;6.50;78.81;100092.41;5077458;28;20414;-79
2021/01/20 05:01:04;;;;;;;5.72;4.03;;;;;;;6.53;78.50;100085.75;5077692;28;20109;-79
2021/01/20 05:03:29;;;;;;;10.27;5.40;;;;;;;6.54;77.80;100077.47;5077330;28;20048;-79
2021/01/20 05:05:55;;;;;;;7.30;4.72;;;;;;;6.58;77.87;100085.88;5077615;28;20040;-80
2021/01/20 05:08:21;;;;;;;8.63;4.37;;;;;;;6.54;78.65;100079.31;5077706;28;20075;-79
2021/01/20 05:10:48;;;;;;;7.32;4.53;;;;;;;6.62;76.86;100070.97;5077472;28;20027;-80
2021/01/20 05:13:27;;;;;;;8.77;4.47;;;;;;;6.64;76.19;100064.34;5076924;28;20029;-79
2021/01/20 05:15:53;;;;;;;9.05;4.43;;;;;;;6.69;76.19;100066.38;5076319;28;20021;-80
2021/01/20 05:18:18;;;;;;;7.07;3.90;;;;;;;6.68;76.00;100062.81;5076698;28;20028;-79
2021/01/20 05:20:44;;;;;;;6.20;3.65;;;;;;;6.67;76.12;100066.56;5077330;28;20078;-79
2021/01/20 05:23:10;;;;;;;9.18;4.53;;;;;;;6.69;75.56;100069.88;5076911;28;20106;-79
2021/01/20 05:25:37;;;;;;;7.97;3.95;;;;;;;6.69;75.13;100056.44;5077388;28;20082;-79
2021/01/20 05:28:24;;;;;;;6.90;3.80;;;;;;;6.62;76.49;100066.41;5076865;28;20037;-78
2021/01/20 05:30:57;;;;;;;7.40;3.70;;;;;;;6.66;76.08;100058.75;5088522;28;20033;-79
2021/01/20 05:33:34;;;;;;;8.60;3.90;;;;;;;6.70;75.15;100063.44;5077058;28;20438;-79
2021/01/20 05:36:15;;;;;;;10.63;4.07;;;;;;;6.75;74.92;100060.09;5076216;28;20028;-79
2021/01/20 05:38:44;;;;;;;6.45;4.13;;;;;;;6.78;75.52;100054.25;5076895;28;20372;-79
2021/01/20 05:41:22;;;;;;;7.05;3.90;;;;;;;6.75;75.01;100043.97;5075606;28;20406;-79
2021/01/20 05:43:52;;;;;;;7.93;3.90;;;;;;;6.82;75.12;100043.88;5076824;28;20027;-79
2021/01/20 05:46:43;;;;;;;5.20;3.58;;;;;;;6.83;74.62;100043.66;5076358;28;20059;-79
2021/01/20 05:49:28;;;;;;;5.10;3.38;;;;;;;6.85;74.76;100043.44;5074720;28;20045;-79
2021/01/20 05:51:54;;;;;;;6.68;3.10;;;;;;;6.85;74.24;100041.56;5076398;28;20422;-79
2021/01/20 05:54:39;;;;;;;6.78;3.55;;;;;;;6.82;75.46;100043.88;5076735;28;20036;-79
2021/01/20 05:57:16;;;;;;;5.50;3.42;;;;;;;6.84;75.01;100039.94;5074384;28;20029;-79
2021/01/20 05:59:43;;;;;;;7.03;3.40;;;;;;;6.82;74.29;100038.50;5076723;28;20074;-79
2021/01/20 06:02:12;;;;;;;5.40;3.38;;;;;;;6.83;75.21;100040.13;5076076;28;20095;-79
2021/01/20 06:04:38;;;;;;;5.60;3.60;;;;;;;6.83;74.67;100037.44;5076478;28;20055;-79
2021/01/20 06:07:06;;;;;;;6.38;3.60;;;;;;;6.84;74.78;100036.41;5074956;28;20064;-79
2021/01/20 06:09:33;;;;;;;5.60;2.75;;;;;;;6.80;75.85;100022.59;5076443;28;20295;-79
2021/01/20 06:11:59;;;;;;;5.55;3.30;;;;;;;6.85;74.17;100028.13;5074825;28;20036;-79
2021/01/20 06:14:25;;;;;;;6.95;3.47;;;;;;;6.83;74.44;100027.53;5076484;28;20027;-79
2021/01/20 06:17:00;;;;;;;4.63;2.90;;;;;;;6.81;75.41;100023.41;5074840;28;20414;-79
2021/01/20 06:19:26;;;;;;;5.18;3.05;;;;;;;6.82;75.20;100023.19;5075349;28;20027;-79
2021/01/20 06:21:53;;;;;;;4.68;2.72;;;;;;;6.78;75.40;100008.56;5076084;28;20024;-79
2021/01/20 06:24:32;;;;;;;6.82;3.03;;;;;;;6.84;74.78;100013.06;5076098;28;20027;-79
2021/01/20 06:27:08;;;;;;;5.93;3.17;;;;;;;6.84;74.44;99998.78;5074491;28;20070;-79
2021/01/20 06:29:40;;;;;;;3.90;2.57;;;;;;;6.88;75.08;100016.94;5074867;28;20024;-80
2021/01/20 06:32:09;;;;;;;4.15;2.92;;;;;;;6.86;74.71;100008.25;5074735;28;20135;-81
2021/01/20 06:34:34;;;;;;;5.18;2.78;;;;;;;6.87;75.32;100007.19;5072703;28;20090;-82
2021/01/20 06:37:00;;;;;;;3.40;2.57;;;;;;;6.86;75.09;100002.06;5081157;28;20032;-82
2021/01/20 06:39:31;;;;;;;5.17;2.90;;;;;;;6.89;74.79;100007.00;5090563;28;20035;-82
2021/01/20 06:42:01;;;;;;;5.65;2.92;;;;;;;6.85;76.27;100011.19;5087905;28;20439;-82
2021/01/20 06:44:27;;;;;;;5.57;3.05;;;;;;;6.85;75.61;100003.13;5076668;28;20021;-80
2021/01/20 06:46:55;;;;;;;5.18;3.00;;;;;;;6.84;76.33;100005.00;5075672;28;20036;-82
2021/01/20 06:49:21;;;;;;;5.13;2.70;;;;;;;6.86;76.32;100018.19;5076429;28;20029;-82
2021/01/20 06:52:12;;;;;;;6.43;2.67;;;;;;;6.86;76.36;100007.44;5071935;28;20304;-80
2021/01/20 06:54:39;;;;;;;6.25;2.90;;;;;;;6.85;76.59;100020.06;5067079;28;20028;-81
2021/01/20 06:57:30;;;;;;;5.75;3.15;;;;;;;6.83;76.86;100018.63;5075271;28;20021;-79
2021/01/20 07:00:08;;;;;;;4.78;2.72;;;;;;;6.83;77.24;100013.25;5075346;28;20418;-80
2021/01/20 07:02:34;;;;;;;6.90;3.50;;;;;;;6.87;77.20;100014.44;5076724;28;20031;-84
2021/01/20 07:05:00;;;;;;;6.20;3.10;;;;;;;6.87;77.48;99999.13;5076956;28;20021;-80
2021/01/20 07:07:49;;;;;;;5.10;2.72;;;;;;;6.81;78.14;100005.44;5083165;28;20084;-82
2021/01/20 07:10:15;;;;;;;4.28;2.90;;;;;;;6.80;78.79;100009.16;5084695;28;20038;-81
2021/01/20 07:13:00;;;;;;;;;;;;;;;6.82;78.42;100012.44;5083392;28;20025;-79
2021/01/20 07:15:26;;;;;;;5.60;2.92;;;;;;;6.81;79.08;100013.50;5081227;28;19909;-80
2021/01/20 07:17:52;;;;;;;10.18;3.03;;;;;;;6.77;79.92;99998.03;5082208;28;20044;-78
2021/01/20 07:20:18;;;;;;;5.72;3.00;;;;;;;6.74;79.16;100012.75;5087092;28;20121;-79
2021/01/20 07:22:44;;;;;;;5.27;2.97;;;;;;;6.76;79.45;100017.91;5084179;28;20123;-82
2021/01/20 07:25:10;;;;;;;5.65;2.83;;;;;;;6.72;80.53;100006.78;5075490;28;20290;-81
2021/01/20 07:27:47;;;;;;;;;;;;;;;6.72;80.34;100007.59;5075597;28;20444;-82
2021/01/20 07:30:14;;;;;;;7.25;3.55;;;;;;;6.68;81.17;100016.34;5077841;28;20007;-80
2021/01/20 07:32:39;;;;;;;4.45;2.65;;;;;;;6.66;81.86;100013.88;5071998;28;20434;-80
2021/01/20 07:35:08;;;;;;;4.97;2.77;;;;;;;6.67;81.37;100009.31;5075580;28;20128;-80
2021/01/20 07:37:33;;;;;;;6.47;3.13;;;;;;;6.64;82.62;100009.78;5075238;28;20027;-80
2021/01/20 07:40:07;;;;;;;4.73;3.00;;;;;;;6.61;82.11;100008.38;5075904;28;20029;-80
2021/01/20 07:42:40;;;;;;;5.93;3.08;;;;;;;6.60;82.52;100011.28;5078096;28;20103;-79
2021/01/20 07:45:06;;;;;;;5.50;3.10;;;;;;;6.57;83.42;100004.47;5080117;28;20369;-78
2021/01/20 07:47:47;;;;;;;;;;;;;;;6.55;83.49;100003.09;5094109;28;20072;-79
2021/01/20 07:50:13;;;;;;;5.70;3.30;;;;;;;6.50;84.58;100001.06;5078224;28;19913;-78
2021/01/20 07:52:39;;;;;;;4.35;3.00;;;;;;;6.50;84.94;100002.94;5072164;28;20050;-79
2021/01/20 07:55:14;;;;;;;;;;;;;;;6.49;84.83;99998.59;5078980;28;20016;-78
2021/01/20 07:57:40;;;;;;;7.38;3.50;;;;;;;6.43;85.21;100006.50;5078847;28;20008;-77
2021/01/20 08:00:08;;;;;;;9.43;3.27;;;;;;;6.40;86.20;100003.47;5077882;28;20068;-79
2021/01/20 08:02:34;;;;;;;4.30;2.70;;;;;;;6.40;85.77;99988.16;5078679;28;20008;-79
2021/01/20 08:05:03;;;;;;;5.97;2.80;;;;;;;6.41;85.66;99989.81;5078764;28;20429;-79
2021/01/20 08:07:28;;;;;;;5.13;2.70;;;;;;;6.40;85.90;99993.53;5077045;28;20036;-79
2021/01/20 08:09:54;;;;;;;6.50;2.90;;;;;;;6.48;84.76;99986.22;5077376;28;20020;-79
2021/01/20 08:12:25;;;;;;;5.40;3.10;;;;;;;6.51;84.66;99994.66;5078523;28;20401;-80
2021/01/20 08:14:52;;;;;;;5.32;2.72;;;;;;;6.54;85.23;99996.91;5078728;28;20025;-78
2021/01/20 08:17:19;;;;;;;5.57;3.00;;;;;;;6.56;84.56;99997.47;5077707;28;20326;-78
2021/01/20 08:19:46;;;;;;;8.20;2.83;;;;;;;6.61;83.58;99978.81;5078550;28;20023;-79
2021/01/20 08:22:14;;;;;;;5.47;2.83;;;;;;;6.69;83.53;99991.94;5077986;28;20025;-75
2021/01/20 08:24:48;;;;;;;3.60;2.50;;;;;;;6.76;83.17;99991.03;5078452;28;20142;-76
2021/01/20 08:27:28;;;;;;;5.20;3.03;;;;;;;6.78;82.63;99992.44;5078414;28;20032;-77
2021/01/20 08:29:56;;;;;;;4.97;2.78;;;;;;;6.81;81.45;99988.50;5077306;28;20069;-77
2021/01/20 08:32:22;;;;;;;4.68;2.75;;;;;;;6.83;82.13;99989.06;5077658;28;20067;-77
2021/01/20 08:34:50;;;;;;;3.03;2.20;;;;;;;6.80;81.32;99993.03;5077636;28;20418;-76
2021/01/20 08:37:32;;;;;;;5.13;2.60;;;;;;;6.80;81.40;99987.66;5078194;28;20036;-77
2021/01/20 08:39:59;;;;;;;4.70;2.40;;;;;;;6.77;81.74;99988.13;5078252;28;20078;-76
2021/01/20 08:42:36;;;;;;;3.30;2.50;;;;;;;6.79;80.93;99991.41;5077911;28;20013;-76
2021/01/20 08:45:29;;;;;;;4.30;2.30;;;;;;;6.87;80.56;99987.56;5063616;28;20032;-76
2021/01/20 08:48:02;;;;;;;4.55;2.40;;;;;;;6.94;79.29;99989.13;5078028;28;20054;-77
2021/01/20 08:50:27;;;;;;;3.72;2.10;;;;;;;6.96;79.30;99984.34;5077950;28;20390;-77
2021/01/20 08:52:54;;;;;;;3.70;2.30;;;;;;;7.00;78.33;99970.44;5076654;28;20063;-78
2021/01/20 08:55:24;;;;;;;5.10;2.03;;;;;;;6.99;78.76;99987.63;5080621;28;20032;-76
2021/01/20 08:58:20;;;;;;;6.90;2.85;;;;;;;7.03;78.05;99969.97;5079479;28;20024;-77
2021/01/20 09:00:50;;;;;;;4.30;2.30;;;;;;;7.12;77.26;99965.91;5077891;28;20024;-77
2021/01/20 09:03:19;;;;;;;3.85;2.22;;;;;;;7.15;76.25;99946.66;5076550;28;20306;-77
2021/01/20 09:05:51;;;;;;;3.42;2.15;;;;;;;7.23;75.57;99957.09;5077639;28;20021;-77
2021/01/20 09:08:18;;;;;;;3.70;1.92;;;;;;;7.25;74.77;99962.22;5077612;28;20084;-77
2021/01/20 09:10:45;;;;;;;4.32;2.13;;;;;;;7.21;75.28;99956.47;5077380;28;20024;-78
2021/01/20 09:13:12;;;;;;;2.78;2.03;;;;;;;7.24;74.63;99961.41;5076524;28;20539;-77
2021/01/20 09:15:37;;;;;;;3.30;2.05;;;;;;;7.28;74.32;99954.53;5076433;28;20329;-77
2021/01/20 09:18:06;;;;;;;3.58;2.03;;;;;;;7.25;74.31;99946.91;5076700;28;20044;-77
2021/01/20 09:20:35;;;;;;;2.92;1.90;;;;;;;7.29;73.03;99948.09;5075896;28;20329;-77
2021/01/20 09:23:05;;;;;;;5.63;2.17;;;;;;;7.30;72.44;99949.72;5077423;28;20174;-77
2021/01/20 09:25:30;;;;;;;2.65;1.60;;;;;;;7.28;72.63;99938.38;5077102;28;20444;-77
2021/01/20 09:27:56;;;;;;;3.88;2.15;;;;;;;7.36;72.47;99959.53;5077214;28;20032;-77
2021/01/20 09:30:22;;;;;;;3.65;2.00;;;;;;;7.37;72.78;99953.13;5077251;28;20442;-77
2021/01/20 09:32:47;;;;;;;8.17;3.93;;;;;;;7.47;73.29;99936.44;5076087;28;20102;-77
2021/01/20 09:35:15;;;;;;;6.60;2.47;;;;;;;7.51;72.50;99952.91;5076982;28;20333;-77
2021/01/20 09:37:42;;;;;;;7.65;3.88;;;;;;;7.66;70.86;99950.56;5076830;28;20024;-77
2021/01/20 09:40:13;;;;;;;4.15;2.33;;;;;;;7.69;70.46;99952.81;5076540;28;20418;-77
2021/01/20 09:42:40;;;;;;;6.47;2.83;;;;;;;7.76;70.61;99961.59;5076119;28;20186;-77
2021/01/20 09:45:07;;;;;;;6.80;2.35;;;;;;;7.86;67.73;99958.31;5076976;28;20065;-77
2021/01/20 09:47:42;;;;;;;4.30;2.58;;;;;;;7.88;68.16;99958.88;5076609;28;20033;-77
2021/01/20 09:50:10;;;;;;;4.35;2.35;;;;;;;7.86;68.35;99944.84;5063453;28;20059;-77
2021/01/20 09:52:36;;;;;;;8.27;1.88;;;;;;;7.85;68.20;99952.09;5076774;28;20051;-77
2021/01/20 09:55:03;;;;;;;5.25;2.20;;;;;;;7.86;69.45;99947.56;5075394;28;20060;-77
2021/01/20 09:57:28;;;;;;;6.60;2.35;;;;;;;7.88;68.77;99951.63;5076767;28;20084;-77
2021/01/20 09:59:54;;;;;;;3.53;2.03;;;;;;;7.96;67.91;99945.09;5076754;28;20060;-77
2021/01/20 10:02:19;;;;;;;4.27;2.10;;;;;;;8.15;67.28;99940.34;5076523;28;20021;-77
2021/01/20 10:04:45;;;;;;;5.30;1.97;;;;;;;8.26;65.96;99940.34;5079803;28;20047;-76
2021/01/20 10:07:12;;;;;;;5.45;2.33;;;;;;;8.35;63.79;99950.75;5077066;28;20016;-77
2021/01/20 10:09:38;;;;;;;3.95;2.42;;;;;;;8.35;64.60;99953.47;5075399;28;20060;-77
2021/01/20 10:12:07;;;;;;;2.92;1.92;;;;;;;8.38;63.49;99950.28;5076285;28;20052;-77
2021/01/20 10:14:39;;;;;;;4.57;2.10;;;;;;;8.44;63.97;99954.72;5076148;28;20035;-77
2021/01/20 10:17:05;;;;;;;5.88;2.80;;;;;;;8.49;63.56;99931.41;5075161;28;20036;-77
2021/01/20 10:19:30;;;;;;;5.32;2.53;;;;;;;8.58;61.45;99933.72;5076456;28;20470;-77
2021/01/20 10:21:59;;;;;;;4.63;2.17;;;;;;;8.57;62.12;99935.59;5075948;28;20055;-77
2021/01/20 10:24:25;;;;;;;5.22;2.30;;;;;;;8.52;60.72;99939.00;5076155;28;20402;-77
2021/01/20 10:26:50;;;;;;;4.38;2.03;;;;;;;8.49;61.70;99931.41;5074943;28;20053;-77
2021/01/20 10:29:16;;;;;;;7.97;2.33;;;;;;;8.43;60.75;99929.66;5074668;28;20041;-77
2021/01/20 10:31:42;;;;;;;3.63;1.97;;;;;;;8.43;60.00;99931.53;5076012;28;20023;-77
2021/01/20 10:34:09;;;;;;;4.13;1.80;;;;;;;8.37;61.55;99925.22;5076291;28;20052;-77
2021/01/20 10:36:36;;;;;;;2.97;1.80;;;;;;;8.36;60.17;99915.53;5074816;28;20025;-77
2021/01/20 10:39:03;;;;;;;3.72;2.03;;;;;;;8.39;61.23;99908.81;5075882;28;20032;-77
2021/01/20 10:41:28;;;;;;;4.70;1.98;;;;;;;8.42;60.70;99906.47;5075984;28;20026;-77
2021/01/20 10:43:54;;;;;;;5.57;1.90;;;;;;;8.43;59.99;99900.03;5076120;28;20099;-77
2021/01/20 10:46:28;;;;;;;3.47;2.13;;;;;;;8.45;60.63;99892.53;5075655;28;20025;-77
2021/01/20 10:48:58;;;;;;;4.35;2.20;;;;;;;8.47;59.75;99890.41;5075989;28;20107;-77
2021/01/20 10:51:25;;;;;;;5.03;2.10;;;;;;;8.49;60.31;99892.84;5075799;28;20385;-77
2021/01/20 10:53:51;;;;;;;4.78;1.85;;;;;;;8.55;59.64;99891.09;5075832;28;20051;-77
2021/01/20 10:56:17;;;;;;;3.90;1.95;;;;;;;8.50;60.09;99881.84;5075989;28;20064;-77
2021/01/20 10:58:43;;;;;;;4.15;1.85;;;;;;;8.48;60.56;99886.66;5075441;28;20027;-77
2021/01/20 11:01:09;;;;;;;5.00;2.25;;;;;;;8.49;59.33;99877.53;5075448;28;20036;-77
2021/01/20 11:03:34;;;;;;;3.85;2.03;;;;;;;8.50;59.68;99881.84;5075757;28;20492;-77
2021/01/20 11:06:00;;;;;;;4.28;2.00;;;;;;;8.52;60.07;99878.91;5075118;28;20426;-77
2021/01/20 11:08:25;;;;;;;5.93;2.10;;;;;;;8.51;59.58;99861.13;5075346;28;20028;-77
2021/01/20 11:10:51;;;;;;;4.83;2.50;;;;;;;8.49;59.27;99861.38;5075608;28;20016;-77
2021/01/20 11:13:17;;;;;;;4.80;2.03;;;;;;;8.47;59.23;99876.13;5075878;28;20031;-77
2021/01/20 11:15:47;;;;;;;6.22;1.92;;;;;;;8.45;59.31;99865.59;5077692;28;20415;-77
2021/01/20 11:18:14;;;;;;;3.38;1.80;;;;;;;8.43;59.29;99854.22;5078507;28;20063;-77
2021/01/20 11:20:40;;;;;;;4.90;1.85;;;;;;;8.48;59.19;99854.31;5079576;28;20103;-77
2021/01/20 11:23:12;;;;;;;4.38;2.03;;;;;;;8.51;59.77;99848.47;5079640;28;20021;-77
2021/01/20 11:25:52;;;;;;;3.75;2.20;;;;;;;8.50;59.85;99852.22;5079558;28;20091;-77
2021/01/20 11:28:21;;;;;;;4.72;2.30;;;;;;;8.57;59.37;99849.38;5079711;28;20032;-77
2021/01/20 11:30:53;;;;;;;5.55;2.25;;;;;;;8.59;58.77;99849.09;5078998;28;20043;-77
2021/01/20 11:33:22;;;;;;;5.18;2.38;;;;;;;8.58;59.16;99845.59;5078925;28;20059;-77
2021/01/20 11:35:47;;;;;;;3.00;1.70;;;;;;;8.55;58.91;99840.72;5079384;28;20111;-77
2021/01/20 11:38:13;;;;;;;3.40;2.10;;;;;;;8.55;59.34;99834.50;5079789;28;20104;-77
2021/01/20 11:40:38;;;;;;;;;;;;;;;8.56;59.73;99830.75;5078816;28;20036;-77
2021/01/20 11:43:10;;;;;;;4.07;2.03;;;;;;;8.49;59.43;99831.72;5079019;28;20222;-77